sensor_id;sensor_type;location;lat;lon;timestamp;P1;durP1;ratioP1;P2;durP2;ratioP2
17153;SDS011;8692;52.164;7.558;2023-02-02T00:01:47;12.10;;;2.17;;
17153;SDS011;8692;52.164;7.558;2023-02-02T00:04:19;9.83;;;2.53;;
17153;SDS011;8692;52.164;7.558;2023-02-02T00:06:49;7.60;;;2.00;;
17153;SDS011;8692;52.164;7.558;2023-02-02T00:09:17;12.37;;;2.17;;
17153;SDS011;8692;52.164;7.558;2023-02-02T00:11:47;13.20;;;2.90;;
17153;SDS011;8692;52.164;7.558;2023-02-02T00:14:16;11.93;;;2.67;;
17153;SDS011;8692;52.164;7.558;2023-02-02T00:16:48;8.70;;;1.87;;
17153;SDS011;8692;52.164;7.558;2023-02-02T00:19:17;14.90;;;3.37;;
17153;SDS011;8692;52.164;7.558;2023-02-02T00:21:50;8.00;;;1.77;;
17153;SDS011;8692;52.164;7.558;2023-02-02T00:24:18;8.57;;;2.27;;
17153;SDS011;8692;52.164;7.558;2023-02-02T00:26:51;8.37;;;2.33;;
17153;SDS011;8692;52.164;7.558;2023-02-02T00:29:21;13.43;;;2.63;;
17153;SDS011;8692;52.164;7.558;2023-02-02T00:31:50;12.83;;;2.30;;
17153;SDS011;8692;52.164;7.558;2023-02-02T00:34:21;8.50;;;1.80;;
17153;SDS011;8692;52.164;7.558;2023-02-02T00:36:59;11.63;;;2.03;;
17153;SDS011;8692;52.164;7.558;2023-02-02T00:39:29;6.77;;;1.70;;
17153;SDS011;8692;52.164;7.558;2023-02-02T00:41:57;7.30;;;1.97;;
17153;SDS011;8692;52.164;7.558;2023-02-02T00:44:27;6.07;;;2.30;;
17153;SDS011;8692;52.164;7.558;2023-02-02T00:47:15;14.53;;;3.10;;
17153;SDS011;8692;52.164;7.558;2023-02-02T00:49:48;10.27;;;2.20;;
17153;SDS011;8692;52.164;7.558;2023-02-02T00:52:19;7.33;;;1.93;;
17153;SDS011;8692;52.164;7.558;2023-02-02T00:54:47;8.20;;;1.60;;
17153;SDS011;8692;52.164;7.558;2023-02-02T00:57:15;8.17;;;1.87;;
17153;SDS011;8692;52.164;7.558;2023-02-02T00:59:43;7.70;;;1.53;;
17153;SDS011;8692;52.164;7.558;2023-02-02T01:02:11;8.77;;;1.33;;
17153;SDS011;8692;52.164;7.558;2023-02-02T01:04:42;10.83;;;2.27;;
17153;SDS011;8692;52.164;7.558;2023-02-02T01:07:11;4.87;;;1.30;;
17153;SDS011;8692;52.164;7.558;2023-02-02T01:09:39;8.80;;;2.63;;
17153;SDS011;8692;52.164;7.558;2023-02-02T01:12:10;11.63;;;2.60;;
17153;SDS011;8692;52.164;7.558;2023-02-02T01:14:38;10.67;;;1.97;;
17153;SDS011;8692;52.164;7.558;2023-02-02T01:17:09;8.80;;;1.60;;
17153;SDS011;8692;52.164;7.558;2023-02-02T01:19:37;11.80;;;2.13;;
17153;SDS011;8692;52.164;7.558;2023-02-02T01:22:08;9.47;;;1.80;;
17153;SDS011;8692;52.164;7.558;2023-02-02T01:24:38;9.17;;;1.47;;
17153;SDS011;8692;52.164;7.558;2023-02-02T01:27:14;10.07;;;1.67;;
17153;SDS011;8692;52.164;7.558;2023-02-02T01:29:44;7.63;;;1.90;;
17153;SDS011;8692;52.164;7.558;2023-02-02T01:32:12;9.23;;;2.10;;
17153;SDS011;8692;52.164;7.558;2023-02-02T01:34:40;8.00;;;1.67;;
17153;SDS011;8692;52.164;7.558;2023-02-02T01:37:11;7.67;;;2.00;;
17153;SDS011;8692;52.164;7.558;2023-02-02T01:39:40;9.97;;;1.97;;
17153;SDS011;8692;52.164;7.558;2023-02-02T01:42:10;10.67;;;2.47;;
17153;SDS011;8692;52.164;7.558;2023-02-02T01:44:59;6.70;;;1.40;;
17153;SDS011;8692;52.164;7.558;2023-02-02T01:47:38;8.03;;;1.40;;
17153;SDS011;8692;52.164;7.558;2023-02-02T01:50:12;12.27;;;2.23;;
17153;SDS011;8692;52.164;7.558;2023-02-02T01:52:43;10.13;;;2.13;;
17153;SDS011;8692;52.164;7.558;2023-02-02T01:55:14;8.93;;;1.40;;
17153;SDS011;8692;52.164;7.558;2023-02-02T01:57:49;12.43;;;1.83;;
17153;SDS011;8692;52.164;7.558;2023-02-02T02:00:23;8.90;;;1.57;;
17153;SDS011;8692;52.164;7.558;2023-02-02T02:02:54;12.07;;;2.47;;
17153;SDS011;8692;52.164;7.558;2023-02-02T02:05:28;11.73;;;2.47;;
17153;SDS011;8692;52.164;7.558;2023-02-02T02:08:02;9.50;;;1.97;;
17153;SDS011;8692;52.164;7.558;2023-02-02T02:10:38;14.97;;;5.63;;
17153;SDS011;8692;52.164;7.558;2023-02-02T02:13:09;8.90;;;3.20;;
17153;SDS011;8692;52.164;7.558;2023-02-02T02:15:40;14.07;;;2.57;;
17153;SDS011;8692;52.164;7.558;2023-02-02T02:18:31;11.17;;;2.07;;
17153;SDS011;8692;52.164;7.558;2023-02-02T02:33:52;10.93;;;2.90;;
17153;SDS011;8692;52.164;7.558;2023-02-02T02:36:29;9.07;;;2.80;;
17153;SDS011;8692;52.164;7.558;2023-02-02T02:39:08;7.40;;;3.03;;
17153;SDS011;8692;52.164;7.558;2023-02-02T02:41:40;11.40;;;2.70;;
17153;SDS011;8692;52.164;7.558;2023-02-02T02:44:15;10.27;;;2.30;;
17153;SDS011;8692;52.164;7.558;2023-02-02T02:46:44;12.70;;;2.67;;
17153;SDS011;8692;52.164;7.558;2023-02-02T02:49:19;16.63;;;3.63;;
17153;SDS011;8692;52.164;7.558;2023-02-02T02:51:50;19.47;;;4.37;;
17153;SDS011;8692;52.164;7.558;2023-02-02T02:54:27;13.80;;;3.27;;
17153;SDS011;8692;52.164;7.558;2023-02-02T02:57:11;17.00;;;4.50;;
17153;SDS011;8692;52.164;7.558;2023-02-02T02:59:56;12.03;;;2.70;;
17153;SDS011;8692;52.164;7.558;2023-02-02T03:02:34;12.17;;;3.77;;
17153;SDS011;8692;52.164;7.558;2023-02-02T03:05:22;16.57;;;3.70;;
17153;SDS011;8692;52.164;7.558;2023-02-02T03:08:00;11.33;;;2.87;;
17153;SDS011;8692;52.164;7.558;2023-02-02T03:10:36;18.07;;;3.20;;
17153;SDS011;8692;52.164;7.558;2023-02-02T03:13:09;17.20;;;4.23;;
17153;SDS011;8692;52.164;7.558;2023-02-02T03:15:39;14.73;;;3.40;;
17153;SDS011;8692;52.164;7.558;2023-02-02T03:18:11;17.50;;;3.07;;
17153;SDS011;8692;52.164;7.558;2023-02-02T03:20:45;14.90;;;3.53;;
17153;SDS011;8692;52.164;7.558;2023-02-02T03:23:13;12.57;;;3.17;;
17153;SDS011;8692;52.164;7.558;2023-02-02T03:25:44;16.10;;;4.20;;
17153;SDS011;8692;52.164;7.558;2023-02-02T03:28:15;14.90;;;3.30;;
17153;SDS011;8692;52.164;7.558;2023-02-02T03:30:44;14.83;;;3.27;;
17153;SDS011;8692;52.164;7.558;2023-02-02T03:33:14;19.87;;;4.20;;
17153;SDS011;8692;52.164;7.558;2023-02-02T03:35:45;15.23;;;2.93;;
17153;SDS011;8692;52.164;7.558;2023-02-02T03:38:13;12.03;;;4.07;;
17153;SDS011;8692;52.164;7.558;2023-02-02T03:40:42;9.80;;;3.17;;
17153;SDS011;8692;52.164;7.558;2023-02-02T03:43:10;14.77;;;3.53;;
17153;SDS011;8692;52.164;7.558;2023-02-02T03:45:40;16.13;;;3.43;;
17153;SDS011;8692;52.164;7.558;2023-02-02T03:48:10;9.23;;;3.67;;
17153;SDS011;8692;52.164;7.558;2023-02-02T03:50:40;8.47;;;2.97;;
17153;SDS011;8692;52.164;7.558;2023-02-02T03:53:10;15.03;;;3.90;;
17153;SDS011;8692;52.164;7.558;2023-02-02T03:55:40;19.57;;;4.00;;
17153;SDS011;8692;52.164;7.558;2023-02-02T03:58:10;12.60;;;4.40;;
17153;SDS011;8692;52.164;7.558;2023-02-02T04:00:41;10.57;;;3.57;;
17153;SDS011;8692;52.164;7.558;2023-02-02T04:03:09;12.77;;;2.87;;
17153;SDS011;8692;52.164;7.558;2023-02-02T04:05:37;15.83;;;4.30;;
17153;SDS011;8692;52.164;7.558;2023-02-02T04:08:05;15.97;;;4.03;;
17153;SDS011;8692;52.164;7.558;2023-02-02T04:10:37;11.10;;;3.67;;
17153;SDS011;8692;52.164;7.558;2023-02-02T04:13:07;13.23;;;3.60;;
17153;SDS011;8692;52.164;7.558;2023-02-02T04:15:35;8.63;;;3.60;;
17153;SDS011;8692;52.164;7.558;2023-02-02T04:18:04;23.00;;;3.90;;
17153;SDS011;8692;52.164;7.558;2023-02-02T04:20:32;13.87;;;3.67;;
17153;SDS011;8692;52.164;7.558;2023-02-02T04:23:00;10.80;;;3.03;;
17153;SDS011;8692;52.164;7.558;2023-02-02T04:25:28;14.03;;;4.10;;
17153;SDS011;8692;52.164;7.558;2023-02-02T04:28:00;16.63;;;3.63;;
17153;SDS011;8692;52.164;7.558;2023-02-02T04:30:28;13.87;;;3.40;;
17153;SDS011;8692;52.164;7.558;2023-02-02T04:32:59;13.77;;;3.70;;
17153;SDS011;8692;52.164;7.558;2023-02-02T04:35:29;11.90;;;2.90;;
17153;SDS011;8692;52.164;7.558;2023-02-02T04:38:00;12.23;;;2.73;;
17153;SDS011;8692;52.164;7.558;2023-02-02T04:40:31;10.03;;;3.03;;
17153;SDS011;8692;52.164;7.558;2023-02-02T04:43:02;14.00;;;3.63;;
17153;SDS011;8692;52.164;7.558;2023-02-02T04:45:30;14.17;;;4.27;;
17153;SDS011;8692;52.164;7.558;2023-02-02T04:48:01;13.83;;;4.17;;
17153;SDS011;8692;52.164;7.558;2023-02-02T04:50:30;8.57;;;2.93;;
17153;SDS011;8692;52.164;7.558;2023-02-02T04:53:01;18.57;;;4.27;;
17153;SDS011;8692;52.164;7.558;2023-02-02T04:55:34;14.00;;;3.53;;
17153;SDS011;8692;52.164;7.558;2023-02-02T04:58:05;9.93;;;3.73;;
17153;SDS011;8692;52.164;7.558;2023-02-02T05:00:33;10.50;;;3.27;;
17153;SDS011;8692;52.164;7.558;2023-02-02T05:03:02;10.90;;;3.10;;
17153;SDS011;8692;52.164;7.558;2023-02-02T05:05:30;13.97;;;3.97;;
17153;SDS011;8692;52.164;7.558;2023-02-02T05:07:58;17.53;;;6.57;;
17153;SDS011;8692;52.164;7.558;2023-02-02T05:10:26;15.00;;;6.57;;
17153;SDS011;8692;52.164;7.558;2023-02-02T05:12:54;14.07;;;6.10;;
17153;SDS011;8692;52.164;7.558;2023-02-02T05:15:26;11.97;;;5.53;;
17153;SDS011;8692;52.164;7.558;2023-02-02T05:17:54;13.10;;;5.40;;
17153;SDS011;8692;52.164;7.558;2023-02-02T05:20:25;34.67;;;18.47;;
17153;SDS011;8692;52.164;7.558;2023-02-02T05:22:53;33.93;;;16.60;;
17153;SDS011;8692;52.164;7.558;2023-02-02T05:25:21;15.00;;;7.50;;
17153;SDS011;8692;52.164;7.558;2023-02-02T05:27:50;27.50;;;14.37;;
17153;SDS011;8692;52.164;7.558;2023-02-02T05:30:20;21.37;;;9.43;;
17153;SDS011;8692;52.164;7.558;2023-02-02T05:32:49;21.50;;;9.27;;
17153;SDS011;8692;52.164;7.558;2023-02-02T05:35:18;17.50;;;10.30;;
17153;SDS011;8692;52.164;7.558;2023-02-02T05:37:46;14.87;;;6.63;;
17153;SDS011;8692;52.164;7.558;2023-02-02T05:40:14;15.57;;;6.33;;
17153;SDS011;8692;52.164;7.558;2023-02-02T05:42:46;22.57;;;11.30;;
17153;SDS011;8692;52.164;7.558;2023-02-02T05:45:14;12.93;;;4.93;;
17153;SDS011;8692;52.164;7.558;2023-02-02T05:47:44;17.37;;;3.83;;
17153;SDS011;8692;52.164;7.558;2023-02-02T05:50:16;10.53;;;4.00;;
17153;SDS011;8692;52.164;7.558;2023-02-02T05:52:45;15.30;;;5.67;;
17153;SDS011;8692;52.164;7.558;2023-02-02T05:55:14;10.27;;;4.07;;
17153;SDS011;8692;52.164;7.558;2023-02-02T05:57:43;8.17;;;2.63;;
17153;SDS011;8692;52.164;7.558;2023-02-02T06:00:12;10.77;;;3.30;;
17153;SDS011;8692;52.164;7.558;2023-02-02T06:02:43;5.53;;;3.50;;
17153;SDS011;8692;52.164;7.558;2023-02-02T06:05:13;9.47;;;2.03;;
17153;SDS011;8692;52.164;7.558;2023-02-02T06:07:45;8.90;;;2.37;;
17153;SDS011;8692;52.164;7.558;2023-02-02T06:10:16;12.93;;;6.40;;
17153;SDS011;8692;52.164;7.558;2023-02-02T06:12:44;9.60;;;3.50;;
17153;SDS011;8692;52.164;7.558;2023-02-02T06:15:15;6.43;;;2.73;;
17153;SDS011;8692;52.164;7.558;2023-02-02T06:17:43;6.20;;;2.30;;
17153;SDS011;8692;52.164;7.558;2023-02-02T06:20:11;7.70;;;2.60;;
17153;SDS011;8692;52.164;7.558;2023-02-02T06:22:40;9.93;;;2.97;;
17153;SDS011;8692;52.164;7.558;2023-02-02T06:25:10;7.93;;;2.30;;
17153;SDS011;8692;52.164;7.558;2023-02-02T06:27:40;5.83;;;1.57;;
17153;SDS011;8692;52.164;7.558;2023-02-02T06:30:10;6.10;;;2.67;;
17153;SDS011;8692;52.164;7.558;2023-02-02T06:32:39;4.77;;;2.43;;
17153;SDS011;8692;52.164;7.558;2023-02-02T06:35:10;7.57;;;2.77;;
17153;SDS011;8692;52.164;7.558;2023-02-02T06:37:38;5.37;;;2.00;;
17153;SDS011;8692;52.164;7.558;2023-02-02T06:40:11;8.17;;;1.97;;
17153;SDS011;8692;52.164;7.558;2023-02-02T06:42:39;5.57;;;1.40;;
17153;SDS011;8692;52.164;7.558;2023-02-02T06:45:08;5.70;;;2.07;;
17153;SDS011;8692;52.164;7.558;2023-02-02T06:47:39;5.23;;;2.10;;
17153;SDS011;8692;52.164;7.558;2023-02-02T06:50:08;6.87;;;1.90;;
17153;SDS011;8692;52.164;7.558;2023-02-02T06:52:39;5.77;;;1.77;;
17153;SDS011;8692;52.164;7.558;2023-02-02T06:55:15;10.00;;;2.03;;
17153;SDS011;8692;52.164;7.558;2023-02-02T06:57:44;5.90;;;1.33;;
17153;SDS011;8692;52.164;7.558;2023-02-02T07:00:13;4.73;;;1.17;;
17153;SDS011;8692;52.164;7.558;2023-02-02T07:02:43;3.57;;;1.30;;
17153;SDS011;8692;52.164;7.558;2023-02-02T07:05:12;4.57;;;1.57;;
17153;SDS011;8692;52.164;7.558;2023-02-02T07:07:40;5.03;;;1.50;;
17153;SDS011;8692;52.164;7.558;2023-02-02T07:10:08;6.73;;;1.50;;
17153;SDS011;8692;52.164;7.558;2023-02-02T07:12:59;6.17;;;1.10;;
17153;SDS011;8692;52.164;7.558;2023-02-02T07:15:29;7.60;;;1.80;;
17153;SDS011;8692;52.164;7.558;2023-02-02T07:18:00;5.97;;;1.90;;
17153;SDS011;8692;52.164;7.558;2023-02-02T07:20:28;4.73;;;1.07;;
17153;SDS011;8692;52.164;7.558;2023-02-02T07:22:56;1.73;;;0.77;;
17153;SDS011;8692;52.164;7.558;2023-02-02T07:25:26;3.80;;;1.20;;
17153;SDS011;8692;52.164;7.558;2023-02-02T07:27:54;4.63;;;1.23;;
17153;SDS011;8692;52.164;7.558;2023-02-02T07:30:26;5.87;;;1.17;;
17153;SDS011;8692;52.164;7.558;2023-02-02T07:32:55;4.30;;;1.07;;
17153;SDS011;8692;52.164;7.558;2023-02-02T07:35:25;3.67;;;1.13;;
17153;SDS011;8692;52.164;7.558;2023-02-02T07:37:56;5.20;;;1.27;;
17153;SDS011;8692;52.164;7.558;2023-02-02T07:40:26;4.17;;;1.13;;
17153;SDS011;8692;52.164;7.558;2023-02-02T07:42:55;4.73;;;1.10;;
17153;SDS011;8692;52.164;7.558;2023-02-02T07:45:27;8.60;;;2.50;;
17153;SDS011;8692;52.164;7.558;2023-02-02T07:47:55;4.67;;;1.20;;
17153;SDS011;8692;52.164;7.558;2023-02-02T07:50:24;4.83;;;1.30;;
17153;SDS011;8692;52.164;7.558;2023-02-02T07:52:52;4.47;;;1.47;;
17153;SDS011;8692;52.164;7.558;2023-02-02T07:55:21;4.97;;;1.23;;
17153;SDS011;8692;52.164;7.558;2023-02-02T07:57:50;4.20;;;1.10;;
17153;SDS011;8692;52.164;7.558;2023-02-02T08:00:21;3.27;;;0.80;;
17153;SDS011;8692;52.164;7.558;2023-02-02T08:02:51;5.00;;;1.50;;
17153;SDS011;8692;52.164;7.558;2023-02-02T08:05:20;3.07;;;0.93;;
17153;SDS011;8692;52.164;7.558;2023-02-02T08:07:48;2.20;;;1.10;;
17153;SDS011;8692;52.164;7.558;2023-02-02T08:10:16;2.20;;;0.90;;
17153;SDS011;8692;52.164;7.558;2023-02-02T08:12:45;7.80;;;1.77;;
17153;SDS011;8692;52.164;7.558;2023-02-02T08:15:15;3.93;;;1.23;;
17153;SDS011;8692;52.164;7.558;2023-02-02T08:17:44;4.17;;;1.33;;
17153;SDS011;8692;52.164;7.558;2023-02-02T08:20:16;3.50;;;1.27;;
17153;SDS011;8692;52.164;7.558;2023-02-02T08:22:45;2.87;;;0.87;;
17153;SDS011;8692;52.164;7.558;2023-02-02T08:25:15;4.30;;;1.20;;
17153;SDS011;8692;52.164;7.558;2023-02-02T08:27:45;3.00;;;0.87;;
17153;SDS011;8692;52.164;7.558;2023-02-02T08:30:13;3.60;;;1.17;;
17153;SDS011;8692;52.164;7.558;2023-02-02T08:32:42;4.67;;;1.10;;
17153;SDS011;8692;52.164;7.558;2023-02-02T08:35:10;5.13;;;1.33;;
17153;SDS011;8692;52.164;7.558;2023-02-02T08:37:39;3.40;;;0.90;;
17153;SDS011;8692;52.164;7.558;2023-02-02T08:40:08;3.13;;;1.17;;
17153;SDS011;8692;52.164;7.558;2023-02-02T08:42:40;5.53;;;1.23;;
17153;SDS011;8692;52.164;7.558;2023-02-02T08:45:08;5.93;;;1.53;;
17153;SDS011;8692;52.164;7.558;2023-02-02T08:47:57;3.37;;;1.40;;
17153;SDS011;8692;52.164;7.558;2023-02-02T08:50:37;2.77;;;1.73;;
17153;SDS011;8692;52.164;7.558;2023-02-02T08:53:06;4.10;;;1.67;;
17153;SDS011;8692;52.164;7.558;2023-02-02T08:55:34;3.67;;;2.20;;
17153;SDS011;8692;52.164;7.558;2023-02-02T08:58:05;6.17;;;2.87;;
17153;SDS011;8692;52.164;7.558;2023-02-02T09:00:33;4.13;;;1.97;;
17153;SDS011;8692;52.164;7.558;2023-02-02T09:03:03;8.03;;;3.00;;
17153;SDS011;8692;52.164;7.558;2023-02-02T09:05:31;8.07;;;3.13;;
17153;SDS011;8692;52.164;7.558;2023-02-02T09:08:02;7.70;;;2.97;;
17153;SDS011;8692;52.164;7.558;2023-02-02T09:10:33;8.33;;;3.23;;
17153;SDS011;8692;52.164;7.558;2023-02-02T09:13:02;6.10;;;3.10;;
17153;SDS011;8692;52.164;7.558;2023-02-02T09:15:32;4.40;;;2.53;;
17153;SDS011;8692;52.164;7.558;2023-02-02T09:18:00;4.40;;;2.73;;
17153;SDS011;8692;52.164;7.558;2023-02-02T09:20:29;7.23;;;3.13;;
17153;SDS011;8692;52.164;7.558;2023-02-02T09:22:57;5.07;;;2.53;;
17153;SDS011;8692;52.164;7.558;2023-02-02T09:25:25;3.93;;;2.80;;
17153;SDS011;8692;52.164;7.558;2023-02-02T09:27:55;4.13;;;3.00;;
17153;SDS011;8692;52.164;7.558;2023-02-02T09:30:23;7.20;;;3.30;;
17153;SDS011;8692;52.164;7.558;2023-02-02T09:32:53;4.83;;;3.23;;
17153;SDS011;8692;52.164;7.558;2023-02-02T09:35:21;5.20;;;3.23;;
17153;SDS011;8692;52.164;7.558;2023-02-02T09:37:52;8.33;;;3.33;;
17153;SDS011;8692;52.164;7.558;2023-02-02T09:40:22;4.73;;;3.20;;
17153;SDS011;8692;52.164;7.558;2023-02-02T09:42:57;4.80;;;2.80;;
17153;SDS011;8692;52.164;7.558;2023-02-02T09:45:31;6.67;;;3.30;;
17153;SDS011;8692;52.164;7.558;2023-02-02T09:48:15;5.00;;;2.83;;
17153;SDS011;8692;52.164;7.558;2023-02-02T09:50:50;4.80;;;2.67;;
17153;SDS011;8692;52.164;7.558;2023-02-02T09:53:31;3.83;;;2.50;;
17153;SDS011;8692;52.164;7.558;2023-02-02T09:56:21;6.63;;;2.80;;
17153;SDS011;8692;52.164;7.558;2023-02-02T09:58:54;7.97;;;2.50;;
17153;SDS011;8692;52.164;7.558;2023-02-02T10:01:45;5.07;;;2.27;;
17153;SDS011;8692;52.164;7.558;2023-02-02T10:04:16;6.93;;;3.30;;
17153;SDS011;8692;52.164;7.558;2023-02-02T10:06:49;7.40;;;3.70;;
17153;SDS011;8692;52.164;7.558;2023-02-02T10:09:24;8.00;;;3.00;;
17153;SDS011;8692;52.164;7.558;2023-02-02T10:12:04;5.33;;;2.53;;
17153;SDS011;8692;52.164;7.558;2023-02-02T10:14:48;6.27;;;3.07;;
17153;SDS011;8692;52.164;7.558;2023-02-02T10:17:27;3.80;;;2.13;;
17153;SDS011;8692;52.164;7.558;2023-02-02T10:20:13;5.80;;;2.53;;
17153;SDS011;8692;52.164;7.558;2023-02-02T10:22:49;4.63;;;2.27;;
17153;SDS011;8692;52.164;7.558;2023-02-02T10:25:20;4.43;;;2.70;;
17153;SDS011;8692;52.164;7.558;2023-02-02T10:27:55;5.27;;;2.77;;
17153;SDS011;8692;52.164;7.558;2023-02-02T10:30:34;6.60;;;3.10;;
17153;SDS011;8692;52.164;7.558;2023-02-02T10:33:13;6.37;;;2.50;;
17153;SDS011;8692;52.164;7.558;2023-02-02T10:35:48;7.03;;;3.20;;
17153;SDS011;8692;52.164;7.558;2023-02-02T10:38:26;5.07;;;2.60;;
17153;SDS011;8692;52.164;7.558;2023-02-02T10:41:05;8.50;;;2.80;;
17153;SDS011;8692;52.164;7.558;2023-02-02T10:44:03;4.90;;;2.63;;
17153;SDS011;8692;52.164;7.558;2023-02-02T10:46:44;5.60;;;3.20;;
17153;SDS011;8692;52.164;7.558;2023-02-02T10:49:18;5.73;;;2.90;;
17153;SDS011;8692;52.164;7.558;2023-02-02T10:51:55;5.63;;;3.07;;
17153;SDS011;8692;52.164;7.558;2023-02-02T10:54:36;7.93;;;3.40;;
17153;SDS011;8692;52.164;7.558;2023-02-02T10:57:30;6.37;;;3.17;;
17153;SDS011;8692;52.164;7.558;2023-02-02T11:00:05;6.60;;;3.43;;
17153;SDS011;8692;52.164;7.558;2023-02-02T11:02:43;3.70;;;2.90;;
17153;SDS011;8692;52.164;7.558;2023-02-02T11:05:14;3.33;;;2.20;;
17153;SDS011;8692;52.164;7.558;2023-02-02T11:08:09;4.67;;;2.80;;
17153;SDS011;8692;52.164;7.558;2023-02-02T11:10:43;5.90;;;2.60;;
17153;SDS011;8692;52.164;7.558;2023-02-02T11:13:25;4.90;;;2.37;;
17153;SDS011;8692;52.164;7.558;2023-02-02T11:19:22;6.07;;;2.40;;
17153;SDS011;8692;52.164;7.558;2023-02-02T11:21:55;4.50;;;2.20;;
17153;SDS011;8692;52.164;7.558;2023-02-02T11:24:27;4.50;;;2.30;;
17153;SDS011;8692;52.164;7.558;2023-02-02T11:27:04;5.17;;;2.07;;
17153;SDS011;8692;52.164;7.558;2023-02-02T11:29:40;6.57;;;1.80;;
17153;SDS011;8692;52.164;7.558;2023-02-02T11:32:16;6.60;;;1.90;;
17153;SDS011;8692;52.164;7.558;2023-02-02T11:34:48;2.57;;;1.97;;
17153;SDS011;8692;52.164;7.558;2023-02-02T11:37:31;5.40;;;1.93;;
17153;SDS011;8692;52.164;7.558;2023-02-02T11:40:16;7.27;;;2.40;;
17153;SDS011;8692;52.164;7.558;2023-02-02T11:42:51;5.67;;;2.43;;
17153;SDS011;8692;52.164;7.558;2023-02-02T11:45:24;3.60;;;1.93;;
17153;SDS011;8692;52.164;7.558;2023-02-02T11:48:01;3.60;;;1.90;;
17153;SDS011;8692;52.164;7.558;2023-02-02T11:50:35;3.20;;;2.17;;
17153;SDS011;8692;52.164;7.558;2023-02-02T11:53:05;3.77;;;1.93;;
17153;SDS011;8692;52.164;7.558;2023-02-02T11:55:46;6.77;;;2.20;;
17153;SDS011;8692;52.164;7.558;2023-02-02T11:58:20;5.17;;;2.43;;
17153;SDS011;8692;52.164;7.558;2023-02-02T12:00:55;9.50;;;2.57;;
17153;SDS011;8692;52.164;7.558;2023-02-02T12:03:28;8.87;;;2.53;;
17153;SDS011;8692;52.164;7.558;2023-02-02T12:06:15;4.03;;;2.17;;
17153;SDS011;8692;52.164;7.558;2023-02-02T12:08:49;2.47;;;2.13;;
17153;SDS011;8692;52.164;7.558;2023-02-02T12:11:28;4.83;;;2.40;;
17153;SDS011;8692;52.164;7.558;2023-02-02T12:14:16;6.13;;;2.40;;
17153;SDS011;8692;52.164;7.558;2023-02-02T12:17:02;4.90;;;1.97;;
17153;SDS011;8692;52.164;7.558;2023-02-02T12:19:46;3.33;;;1.73;;
17153;SDS011;8692;52.164;7.558;2023-02-02T12:22:34;3.60;;;2.10;;
17153;SDS011;8692;52.164;7.558;2023-02-02T12:25:22;3.73;;;2.43;;
17153;SDS011;8692;52.164;7.558;2023-02-02T12:28:04;4.03;;;2.17;;
17153;SDS011;8692;52.164;7.558;2023-02-02T12:30:42;4.40;;;1.93;;
17153;SDS011;8692;52.164;7.558;2023-02-02T12:33:21;4.80;;;2.00;;
17153;SDS011;8692;52.164;7.558;2023-02-02T12:35:59;2.57;;;2.00;;
17153;SDS011;8692;52.164;7.558;2023-02-02T12:38:44;6.83;;;2.60;;
17153;SDS011;8692;52.164;7.558;2023-02-02T12:41:43;4.63;;;2.43;;
17153;SDS011;8692;52.164;7.558;2023-02-02T12:44:23;4.47;;;2.10;;
17153;SDS011;8692;52.164;7.558;2023-02-02T12:47:04;9.60;;;2.73;;
17153;SDS011;8692;52.164;7.558;2023-02-02T12:52:46;5.57;;;2.57;;
17153;SDS011;8692;52.164;7.558;2023-02-02T12:55:27;5.97;;;2.97;;
17153;SDS011;8692;52.164;7.558;2023-02-02T12:58:05;6.13;;;2.40;;
17153;SDS011;8692;52.164;7.558;2023-02-02T13:00:47;10.03;;;3.27;;
17153;SDS011;8692;52.164;7.558;2023-02-02T13:03:34;6.40;;;2.60;;
17153;SDS011;8692;52.164;7.558;2023-02-02T13:06:25;4.53;;;2.87;;
17153;SDS011;8692;52.164;7.558;2023-02-02T13:09:14;7.23;;;2.43;;
17153;SDS011;8692;52.164;7.558;2023-02-02T13:11:49;5.20;;;2.90;;
17153;SDS011;8692;52.164;7.558;2023-02-02T13:14:25;7.63;;;2.40;;
17153;SDS011;8692;52.164;7.558;2023-02-02T13:16:58;4.17;;;2.53;;
17153;SDS011;8692;52.164;7.558;2023-02-02T13:19:34;6.43;;;2.50;;
17153;SDS011;8692;52.164;7.558;2023-02-02T13:22:08;4.13;;;2.23;;
17153;SDS011;8692;52.164;7.558;2023-02-02T13:24:42;6.03;;;4.30;;
17153;SDS011;8692;52.164;7.558;2023-02-02T13:27:17;5.60;;;2.43;;
17153;SDS011;8692;52.164;7.558;2023-02-02T13:29:50;3.90;;;2.77;;
17153;SDS011;8692;52.164;7.558;2023-02-02T13:32:24;5.23;;;3.60;;
17153;SDS011;8692;52.164;7.558;2023-02-02T13:34:58;5.30;;;2.60;;
17153;SDS011;8692;52.164;7.558;2023-02-02T13:37:30;9.27;;;2.97;;
17153;SDS011;8692;52.164;7.558;2023-02-02T13:40:23;6.90;;;3.03;;
17153;SDS011;8692;52.164;7.558;2023-02-02T13:42:57;11.20;;;4.37;;
17153;SDS011;8692;52.164;7.558;2023-02-02T13:45:42;7.83;;;4.57;;
17153;SDS011;8692;52.164;7.558;2023-02-02T13:48:22;10.63;;;4.23;;
17153;SDS011;8692;52.164;7.558;2023-02-02T13:51:04;7.43;;;3.60;;
17153;SDS011;8692;52.164;7.558;2023-02-02T13:54:09;6.00;;;3.30;;
17153;SDS011;8692;52.164;7.558;2023-02-02T13:57:17;6.33;;;3.13;;
17153;SDS011;8692;52.164;7.558;2023-02-02T13:59:58;5.80;;;2.90;;
17153;SDS011;8692;52.164;7.558;2023-02-02T14:02:34;7.70;;;3.17;;
17153;SDS011;8692;52.164;7.558;2023-02-02T14:05:18;3.30;;;2.70;;
17153;SDS011;8692;52.164;7.558;2023-02-02T14:07:54;4.80;;;2.67;;
17153;SDS011;8692;52.164;7.558;2023-02-02T14:10:31;5.60;;;3.93;;
17153;SDS011;8692;52.164;7.558;2023-02-02T14:13:13;8.80;;;3.80;;
17153;SDS011;8692;52.164;7.558;2023-02-02T14:16:06;6.97;;;2.90;;
17153;SDS011;8692;52.164;7.558;2023-02-02T14:18:52;4.33;;;2.90;;
17153;SDS011;8692;52.164;7.558;2023-02-02T14:24:41;7.53;;;3.07;;
17153;SDS011;8692;52.164;7.558;2023-02-02T14:30:23;5.57;;;3.13;;
17153;SDS011;8692;52.164;7.558;2023-02-02T14:32:55;6.30;;;3.10;;
17153;SDS011;8692;52.164;7.558;2023-02-02T14:35:58;4.93;;;3.43;;
17153;SDS011;8692;52.164;7.558;2023-02-02T14:41:31;5.17;;;2.67;;
17153;SDS011;8692;52.164;7.558;2023-02-02T14:44:28;5.30;;;3.20;;
17153;SDS011;8692;52.164;7.558;2023-02-02T14:46:56;7.63;;;3.20;;
17153;SDS011;8692;52.164;7.558;2023-02-02T14:49:31;4.07;;;2.60;;
17153;SDS011;8692;52.164;7.558;2023-02-02T14:52:01;4.97;;;3.23;;
17153;SDS011;8692;52.164;7.558;2023-02-02T14:54:35;5.60;;;3.00;;
17153;SDS011;8692;52.164;7.558;2023-02-02T14:57:20;5.73;;;3.03;;
17153;SDS011;8692;52.164;7.558;2023-02-02T14:59:51;4.20;;;3.10;;
17153;SDS011;8692;52.164;7.558;2023-02-02T15:02:22;5.53;;;4.30;;
17153;SDS011;8692;52.164;7.558;2023-02-02T15:11:03;5.30;;;4.80;;
17153;SDS011;8692;52.164;7.558;2023-02-02T15:13:49;6.73;;;6.00;;
17153;SDS011;8692;52.164;7.558;2023-02-02T15:16:22;7.20;;;5.80;;
17153;SDS011;8692;52.164;7.558;2023-02-02T15:18:57;6.77;;;6.07;;
17153;SDS011;8692;52.164;7.558;2023-02-02T15:21:37;9.80;;;8.80;;
17153;SDS011;8692;52.164;7.558;2023-02-02T15:24:21;11.47;;;7.53;;
17153;SDS011;8692;52.164;7.558;2023-02-02T15:26:55;10.43;;;7.83;;
17153;SDS011;8692;52.164;7.558;2023-02-02T15:29:36;11.20;;;9.03;;
17153;SDS011;8692;52.164;7.558;2023-02-02T15:32:13;13.00;;;11.53;;
17153;SDS011;8692;52.164;7.558;2023-02-02T15:34:45;10.97;;;9.50;;
17153;SDS011;8692;52.164;7.558;2023-02-02T15:37:18;11.17;;;9.23;;
17153;SDS011;8692;52.164;7.558;2023-02-02T15:39:52;10.23;;;8.70;;
17153;SDS011;8692;52.164;7.558;2023-02-02T15:42:37;10.57;;;8.53;;
17153;SDS011;8692;52.164;7.558;2023-02-02T15:45:33;9.57;;;8.07;;
17153;SDS011;8692;52.164;7.558;2023-02-02T15:48:14;7.90;;;7.10;;
17153;SDS011;8692;52.164;7.558;2023-02-02T15:50:46;9.03;;;7.10;;
17153;SDS011;8692;52.164;7.558;2023-02-02T15:53:22;10.43;;;8.83;;
17153;SDS011;8692;52.164;7.558;2023-02-02T15:55:53;10.53;;;8.13;;
17153;SDS011;8692;52.164;7.558;2023-02-02T15:58:26;11.10;;;8.90;;
17153;SDS011;8692;52.164;7.558;2023-02-02T16:00:57;9.00;;;7.63;;
17153;SDS011;8692;52.164;7.558;2023-02-02T16:03:33;9.87;;;8.37;;
17153;SDS011;8692;52.164;7.558;2023-02-02T16:06:08;10.43;;;7.17;;
17153;SDS011;8692;52.164;7.558;2023-02-02T16:08:38;8.13;;;7.10;;
17153;SDS011;8692;52.164;7.558;2023-02-02T16:11:08;9.67;;;8.67;;
17153;SDS011;8692;52.164;7.558;2023-02-02T16:13:40;10.10;;;8.73;;